Time;durP1;ratioP1;P1;durP2;ratioP2;P2;SDS_P1;SDS_P2;PMS_P1;PMS_P2;Temp;Humidity;BMP_temperature;BMP_pressure;BME280_temperature;BME280_humidity;BME280_pressure;Samples;Min_cycle;Max_cycle;Signal;HPM_P1;HPM_P2
2024/02/08 00:00:00;;;;;;;18.47;8.13;;;;;;;;;;5016287;28;20056;-57
2024/02/08 00:02:25;;;;;;;21.50;9.23;;;;;;;;;;5026031;28;20100;-57
2024/02/08 00:04:51;;;;;;;20.50;8.90;;;;;;;;;;5026052;28;20025;-58
2024/02/08 00:07:16;;;;;;;16.63;8.13;;;;;;;;;;5030284;28;20025;-57
2024/02/08 00:09:41;;;;;;;15.77;7.40;;;;;;;;;;5023611;28;20030;-57
2024/02/08 00:12:06;;;;;;;19.67;8.20;;;;;;;;;;5018258;28;20458;-56
2024/02/08 00:14:31;;;;;;;19.47;7.97;;;;;;;;;;5015324;28;20108;-58
2024/02/08 00:16:56;;;;;;;20.95;8.52;;;;;;;;;;5028584;28;20033;-57
2024/02/08 00:19:22;;;;;;;18.42;7.53;;;;;;;;;;5016264;28;20061;-57
2024/02/08 00:21:50;;;;;;;17.50;8.00;;;;;;;;;;5029845;28;20021;-57
2024/02/08 00:24:15;;;;;;;15.43;7.18;;;;;;;;;;5030640;28;20029;-58
2024/02/08 00:26:41;;;;;;;15.02;6.70;;;;;;;;;;5031213;28;20099;-58
2024/02/08 00:29:06;;;;;;;16.58;7.35;;;;;;;;;;5027122;28;20056;-58
2024/02/08 00:31:31;;;;;;;17.73;7.20;;;;;;;;;;5025151;28;20045;-57
2024/02/08 00:33:56;;;;;;;17.67;7.10;;;;;;;;;;5022942;28;20054;-57
2024/02/08 00:36:21;;;;;;;18.20;7.50;;;;;;;;;;5028676;28;20128;-58
2024/02/08 00:38:47;;;;;;;15.83;7.37;;;;;;;;;;5030888;28;20037;-57
2024/02/08 00:41:12;;;;;;;17.30;6.90;;;;;;;;;;5015696;28;20033;-56
2024/02/08 00:43:40;;;;;;;16.80;7.13;;;;;;;;;;5019156;28;20030;-56
2024/02/08 00:46:06;;;;;;;17.85;7.18;;;;;;;;;;5024597;28;20045;-57
2024/02/08 00:48:31;;;;;;;16.73;6.97;;;;;;;;;;5020685;28;20060;-57
2024/02/08 00:50:56;;;;;;;16.85;6.75;;;;;;;;;;5029090;28;20032;-58
2024/02/08 00:53:21;;;;;;;16.20;6.93;;;;;;;;;;5025663;28;20030;-57
2024/02/08 00:55:47;;;;;;;16.00;6.17;;;;;;;;;;5012146;28;20049;-58
2024/02/08 00:58:15;;;;;;;14.80;6.57;;;;;;;;;;5017236;28;20051;-57
2024/02/08 01:00:40;;;;;;;17.23;6.75;;;;;;;;;;5026425;28;20565;-58
2024/02/08 01:03:06;;;;;;;17.30;6.90;;;;;;;;;;5029958;28;20100;-57
2024/02/08 01:05:32;;;;;;;14.80;5.80;;;;;;;;;;5019540;28;20805;-57
2024/02/08 01:07:57;;;;;;;13.90;6.18;;;;;;;;;;5030979;28;20013;-57
2024/02/08 01:10:22;;;;;;;14.63;6.37;;;;;;;;;;5014123;28;20034;-59
2024/02/08 01:12:47;;;;;;;17.05;6.70;;;;;;;;;;5027320;28;20112;-57
2024/02/08 01:15:14;;;;;;;15.40;6.15;;;;;;;;;;5020693;28;20022;-57
2024/02/08 01:17:39;;;;;;;11.52;5.40;;;;;;;;;;5026537;28;20034;-58
2024/02/08 01:20:06;;;;;;;12.60;5.40;;;;;;;;;;5026717;28;20018;-57
2024/02/08 01:22:31;;;;;;;13.40;4.97;;;;;;;;;;5021456;28;20025;-58
2024/02/08 01:24:57;;;;;;;14.57;5.60;;;;;;;;;;5014681;28;20145;-58
2024/02/08 01:27:23;;;;;;;15.13;5.38;;;;;;;;;;5032130;28;20021;-57
2024/02/08 01:29:49;;;;;;;12.95;4.97;;;;;;;;;;5031006;28;20031;-58
2024/02/08 01:32:15;;;;;;;12.82;4.88;;;;;;;;;;5033801;28;20021;-58
2024/02/08 01:34:40;;;;;;;10.88;4.15;;;;;;;;;;5032300;28;20025;-57
2024/02/08 01:37:06;;;;;;;10.65;4.28;;;;;;;;;;5024063;28;20059;-57
2024/02/08 01:39:31;;;;;;;11.50;4.40;;;;;;;;;;5017442;28;20370;-58
2024/02/08 01:41:58;;;;;;;12.20;5.10;;;;;;;;;;5025403;28;20024;-58
2024/02/08 01:44:23;;;;;;;9.70;4.15;;;;;;;;;;5018302;28;20213;-58
2024/02/08 01:46:50;;;;;;;9.43;4.07;;;;;;;;;;5018829;28;20178;-57
2024/02/08 01:49:22;;;;;;;9.63;4.25;;;;;;;;;;5016318;28;20620;-57
2024/02/08 01:51:48;;;;;;;10.15;3.80;;;;;;;;;;5033326;28;20034;-57
2024/02/08 01:54:14;;;;;;;11.10;3.90;;;;;;;;;;5032221;28;20025;-59
2024/02/08 01:56:42;;;;;;;8.60;4.07;;;;;;;;;;5025613;28;20022;-57
2024/02/08 01:59:11;;;;;;;9.52;3.95;;;;;;;;;;5016873;28;20030;-58
2024/02/08 02:01:36;;;;;;;12.00;3.90;;;;;;;;;;5032466;28;20033;-57
2024/02/08 02:04:02;;;;;;;10.45;4.18;;;;;;;;;;5023504;28;20033;-57
2024/02/08 02:06:27;;;;;;;13.50;4.30;;;;;;;;;;5029252;28;20440;-57
2024/02/08 02:08:57;;;;;;;11.63;4.20;;;;;;;;;;5032138;28;20016;-57
2024/02/08 02:11:27;;;;;;;11.25;4.15;;;;;;;;;;5030508;28;20033;-57
2024/02/08 02:13:53;;;;;;;11.88;4.35;;;;;;;;;;5030534;28;20024;-57
2024/02/08 02:16:18;;;;;;;11.25;3.92;;;;;;;;;;5036415;28;20061;-57
2024/02/08 02:18:43;;;;;;;10.50;4.27;;;;;;;;;;5038446;28;20025;-59
2024/02/08 02:21:13;;;;;;;8.93;3.92;;;;;;;;;;5020047;28;20030;-58
2024/02/08 02:23:38;;;;;;;11.68;3.92;;;;;;;;;;5018656;28;20040;-57
2024/02/08 02:26:04;;;;;;;10.15;3.88;;;;;;;;;;5029320;28;20029;-58
2024/02/08 02:28:30;;;;;;;11.73;3.97;;;;;;;;;;5018850;28;20096;-58
2024/02/08 02:30:57;;;;;;;8.27;3.50;;;;;;;;;;5013527;28;20482;-58
2024/02/08 02:33:25;;;;;;;8.32;3.15;;;;;;;;;;5024423;28;20037;-58
2024/02/08 02:35:50;;;;;;;9.45;4.05;;;;;;;;;;5032039;28;20021;-57
2024/02/08 02:38:17;;;;;;;9.60;3.53;;;;;;;;;;5028158;28;20033;-58
2024/02/08 02:40:42;;;;;;;10.50;3.85;;;;;;;;;;5025972;28;20025;-57
2024/02/08 02:43:13;;;;;;;9.03;4.30;;;;;;;;;;5037351;28;20169;-57
2024/02/08 02:45:38;;;;;;;11.35;4.20;;;;;;;;;;5051670;28;20085;-58
2024/02/08 02:48:04;;;;;;;15.50;5.20;;;;;;;;;;5047556;28;20013;-58
2024/02/08 02:50:29;;;;;;;10.38;4.72;;;;;;;;;;5035591;28;20034;-58
2024/02/08 02:52:54;;;;;;;14.57;5.70;;;;;;;;;;5026334;28;20018;-58
2024/02/08 02:55:20;;;;;;;11.90;4.68;;;;;;;;;;5021618;28;20104;-58
2024/02/08 02:57:45;;;;;;;13.75;5.18;;;;;;;;;;5032544;28;20385;-59
2024/02/08 03:00:33;;;;;;;11.75;5.10;;;;;;;;;;5032777;28;20454;-58
2024/02/08 03:02:59;;;;;;;16.40;6.18;;;;;;;;;;5032380;28;20057;-57
2024/02/08 03:05:24;;;;;;;15.50;5.70;;;;;;;;;;5020121;28;20521;-56
2024/02/08 03:07:49;;;;;;;15.43;6.20;;;;;;;;;;5022932;28;20032;-57
2024/02/08 03:10:22;;;;;;;16.00;6.53;;;;;;;;;;5029681;28;20032;-58
2024/02/08 03:12:49;;;;;;;15.55;6.30;;;;;;;;;;5029797;28;20136;-56
2024/02/08 03:15:16;;;;;;;16.05;5.93;;;;;;;;;;5032414;28;20482;-57
2024/02/08 03:17:41;;;;;;;18.05;6.95;;;;;;;;;;5018605;28;20030;-58
2024/02/08 03:20:08;;;;;;;16.33;5.95;;;;;;;;;;5031681;28;20025;-57
2024/02/08 03:22:34;;;;;;;15.35;6.75;;;;;;;;;;5031716;28;20045;-57
2024/02/08 03:24:59;;;;;;;15.48;6.10;;;;;;;;;;5027848;28;20436;-57
2024/02/08 03:27:24;;;;;;;16.65;6.85;;;;;;;;;;5029072;28;20025;-58
2024/02/08 03:29:53;;;;;;;15.63;6.88;;;;;;;;;;5029116;28;20025;-58
2024/02/08 03:32:21;;;;;;;17.08;6.68;;;;;;;;;;5018120;28;20029;-58
2024/02/08 03:34:46;;;;;;;17.55;6.70;;;;;;;;;;5031769;28;20087;-58
2024/02/08 03:37:11;;;;;;;17.83;7.30;;;;;;;;;;5024050;28;20485;-58
2024/02/08 03:39:37;;;;;;;18.53;6.60;;;;;;;;;;5030595;28;20419;-57
2024/02/08 03:42:06;;;;;;;22.52;7.93;;;;;;;;;;5019815;28;20034;-58
2024/02/08 03:44:33;;;;;;;17.42;7.45;;;;;;;;;;5012077;28;20056;-58
2024/02/08 03:47:04;;;;;;;;;;;;;;;;;;5027950;28;20109;-58
2024/02/08 03:49:31;;;;;;;16.77;6.95;;;;;;;;;;5023808;28;19909;-58
2024/02/08 03:51:56;;;;;;;15.82;7.03;;;;;;;;;;5031554;28;20021;-57
2024/02/08 03:54:24;;;;;;;19.77;7.63;;;;;;;;;;5029483;28;20036;-57
2024/02/08 03:56:50;;;;;;;19.20;7.35;;;;;;;;;;5022519;28;20527;-57
2024/02/08 03:59:26;;;;;;;18.20;7.50;;;;;;;;;;5028004;28;20051;-58
2024/02/08 04:02:00;;;;;;;18.90;7.55;;;;;;;;;;5014135;28;20513;-57
2024/02/08 04:04:29;;;;;;;17.08;7.18;;;;;;;;;;5011897;28;20034;-58
2024/02/08 04:07:19;;;;;;;17.52;7.35;;;;;;;;;;5021361;28;20027;-57
2024/02/08 04:09:39;;;;;;;18.02;7.82;;;;;;;;;;5030471;28;20037;-57
2024/02/08 04:55:52;;;;;;;13.88;6.07;;;;;;;;;;5030297;28;20187;-57
2024/02/08 04:58:17;;;;;;;13.18;5.53;;;;;;;;;;5030238;28;20123;-58
2024/02/08 05:00:45;;;;;;;17.08;6.38;;;;;;;;;;5029057;28;20033;-58
2024/02/08 05:03:10;;;;;;;12.55;5.18;;;;;;;;;;5026632;28;20152;-57
2024/02/08 05:05:43;;;;;;;13.52;5.57;;;;;;;;;;5030711;28;20439;-58
2024/02/08 05:08:08;;;;;;;11.57;5.32;;;;;;;;;;5017391;28;20018;-57
2024/02/08 05:10:34;;;;;;;12.57;5.07;;;;;;;;;;5031010;28;20028;-57
2024/02/08 05:13:04;;;;;;;15.40;5.40;;;;;;;;;;5030384;28;20033;-57
2024/02/08 05:15:29;;;;;;;11.50;4.80;;;;;;;;;;5028476;28;20026;-57
2024/02/08 05:17:54;;;;;;;11.18;4.80;;;;;;;;;;5030580;28;20029;-57
2024/02/08 05:20:19;;;;;;;13.52;5.22;;;;;;;;;;5028876;28;20037;-57
2024/02/08 05:22:45;;;;;;;10.93;4.45;;;;;;;;;;5025305;28;20027;-57
2024/02/08 05:25:10;;;;;;;12.00;4.95;;;;;;;;;;5022602;28;20148;-57
2024/02/08 05:27:35;;;;;;;12.37;4.50;;;;;;;;;;5028875;28;20075;-57
2024/02/08 05:30:01;;;;;;;10.60;4.63;;;;;;;;;;5024097;28;20480;-57
2024/02/08 05:32:27;;;;;;;11.13;4.72;;;;;;;;;;5021084;28;20091;-58
2024/02/08 05:34:52;;;;;;;12.57;4.72;;;;;;;;;;5025528;28;20026;-57
2024/02/08 05:37:17;;;;;;;12.50;4.45;;;;;;;;;;5018655;28;20044;-58
2024/02/08 05:39:46;;;;;;;12.07;4.80;;;;;;;;;;5022759;28;20367;-57
2024/02/08 05:42:14;;;;;;;12.55;4.40;;;;;;;;;;5020383;28;20029;-58
2024/02/08 05:44:40;;;;;;;14.25;5.07;;;;;;;;;;5016193;28;20022;-58
2024/02/08 05:47:08;;;;;;;12.32;5.28;;;;;;;;;;5023380;28;20024;-58
2024/02/08 05:49:33;;;;;;;12.68;4.63;;;;;;;;;;5019648;28;20053;-58
2024/02/08 05:52:05;;;;;;;13.20;4.00;;;;;;;;;;5023543;28;20640;-59
2024/02/08 05:54:36;;;;;;;12.25;4.45;;;;;;;;;;5019219;28;20036;-57
2024/02/08 05:57:05;;;;;;;9.50;4.03;;;;;;;;;;5021043;28;20296;-57
2024/02/08 05:59:31;;;;;;;14.25;4.80;;;;;;;;;;5027429;28;20029;-57
2024/02/08 06:01:58;;;;;;;12.23;4.90;;;;;;;;;;5026430;28;20029;-57
2024/02/08 06:04:34;;;;;;;11.27;4.15;;;;;;;;;;5025692;28;20025;-57
2024/02/08 06:07:05;;;;;;;12.68;4.53;;;;;;;;;;5023374;28;20072;-57
2024/02/08 06:12:16;;;;;;;9.43;3.97;;;;;;;;;;5022218;28;20057;-58
2024/02/08 06:14:42;;;;;;;10.77;3.60;;;;;;;;;;5031885;28;20393;-58
2024/02/08 06:17:08;;;;;;;9.40;3.65;;;;;;;;;;5030751;28;20029;-58
2024/02/08 06:19:37;;;;;;;9.10;4.13;;;;;;;;;;5023029;28;20105;-57
2024/02/08 06:22:16;;;;;;;10.10;4.15;;;;;;;;;;5032649;28;20025;-57
2024/02/08 06:24:44;;;;;;;8.98;3.28;;;;;;;;;;5025609;28;20037;-57
2024/02/08 06:27:23;;;;;;;10.45;3.45;;;;;;;;;;5033529;28;20025;-57
2024/02/08 06:29:49;;;;;;;10.68;3.63;;;;;;;;;;5033500;28;20025;-57
2024/02/08 06:32:33;;;;;;;9.80;3.75;;;;;;;;;;5033036;28;20025;-58
2024/02/08 06:35:19;;;;;;;11.77;4.55;;;;;;;;;;5032727;28;20022;-57
2024/02/08 06:37:44;;;;;;;11.00;3.92;;;;;;;;;;5029802;28;20021;-58
2024/02/08 06:40:21;;;;;;;11.90;3.85;;;;;;;;;;5027502;28;20029;-58
2024/02/08 07:39:46;;;;;;;10.52;3.60;;;;;;;;;;5027959;28;20511;-58
2024/02/08 07:42:29;;;;;;;9.05;3.50;;;;;;;;;;5020106;28;20034;-57
2024/02/08 07:44:54;;;;;;;9.27;4.00;;;;;;;;;;5030784;28;20081;-57
2024/02/08 07:47:24;;;;;;;10.23;4.10;;;;;;;;;;5040219;28;20049;-57
2024/02/08 07:49:57;;;;;;;9.32;3.58;;;;;;;;;;5047459;28;20079;-57
2024/02/08 07:52:22;;;;;;;8.48;3.60;;;;;;;;;;5044812;28;20025;-56
2024/02/08 07:54:56;;;;;;;9.18;3.80;;;;;;;;;;5028690;28;20030;-56
2024/02/08 07:57:25;;;;;;;9.18;3.70;;;;;;;;;;5024549;28;20037;-57
2024/02/08 07:59:53;;;;;;;8.20;3.47;;;;;;;;;;5026519;28;20043;-56
2024/02/08 08:02:23;;;;;;;10.05;4.03;;;;;;;;;;5026945;28;20032;-57
2024/02/08 08:04:51;;;;;;;9.55;3.63;;;;;;;;;;5031748;28;20137;-57
2024/02/08 08:07:22;;;;;;;8.80;3.30;;;;;;;;;;5031868;28;20660;-56
2024/02/08 08:09:55;;;;;;;10.77;4.50;;;;;;;;;;5038781;28;20092;-58
2024/02/08 08:12:22;;;;;;;9.00;3.25;;;;;;;;;;5027992;28;20069;-57
2024/02/08 08:15:13;;;;;;;8.20;3.25;;;;;;;;;;5040148;28;20034;-57
2024/02/08 08:17:43;;;;;;;9.27;3.38;;;;;;;;;;5042508;28;20025;-60
2024/02/08 08:20:56;;;;;;;8.57;3.72;;;;;;;;;;5026781;28;20638;-56
2024/02/08 08:23:07;;;;;;;8.13;3.65;;;;;;;;;;5029222;28;20584;-56
2024/02/08 08:25:59;;;;;;;8.88;3.08;;;;;;;;;;5026951;28;20030;-56
2024/02/08 08:28:39;;;;;;;8.27;3.25;;;;;;;;;;5024544;28;20421;-57
2024/02/08 08:31:35;;;;;;;9.50;3.22;;;;;;;;;;5030078;28;20381;-56
2024/02/08 08:33:58;;;;;;;9.25;3.47;;;;;;;;;;5031314;28;20025;-57
2024/02/08 08:36:29;;;;;;;9.07;3.63;;;;;;;;;;5030570;28;20464;-57
2024/02/08 08:41:59;;;;;;;9.68;3.95;;;;;;;;;;5037168;28;20057;-56
2024/02/08 08:44:30;;;;;;;9.98;3.75;;;;;;;;;;5030381;28;20039;-57
2024/02/08 08:47:00;;;;;;;9.18;4.10;;;;;;;;;;5031632;28;20017;-57
2024/02/08 08:49:29;;;;;;;11.32;4.03;;;;;;;;;;5030798;28;20024;-57
2024/02/08 08:51:58;;;;;;;8.35;3.47;;;;;;;;;;5029828;28;20021;-57
2024/02/08 08:54:29;;;;;;;8.32;3.58;;;;;;;;;;5025804;28;20021;-57
2024/02/08 08:56:56;;;;;;;11.32;4.30;;;;;;;;;;5029516;28;20504;-58
2024/02/08 08:59:22;;;;;;;9.73;3.83;;;;;;;;;;5023700;28;20057;-57
2024/02/08 09:01:48;;;;;;;9.20;3.85;;;;;;;;;;5030139;28;20532;-57
2024/02/08 09:04:25;;;;;;;10.40;4.30;;;;;;;;;;5028168;28;20033;-57
2024/02/08 09:06:51;;;;;;;9.63;3.75;;;;;;;;;;5030761;28;20021;-57
2024/02/08 09:09:38;;;;;;;9.23;4.05;;;;;;;;;;5031247;28;20096;-57
2024/02/08 09:12:03;;;;;;;10.40;4.05;;;;;;;;;;5030313;28;20758;-57
2024/02/08 09:14:30;;;;;;;10.43;4.05;;;;;;;;;;5027754;28;20052;-57
2024/02/08 09:16:57;;;;;;;8.68;3.70;;;;;;;;;;5029792;28;20079;-58
2024/02/08 09:19:27;;;;;;;9.50;3.63;;;;;;;;;;5030256;28;20028;-57
2024/02/08 09:21:52;;;;;;;10.98;3.92;;;;;;;;;;5029251;28;20044;-58
2024/02/08 09:24:18;;;;;;;9.75;4.20;;;;;;;;;;5022111;28;20470;-58
2024/02/08 09:26:51;;;;;;;9.02;3.50;;;;;;;;;;5029145;28;20021;-56
2024/02/08 09:29:26;;;;;;;8.60;3.55;;;;;;;;;;5032905;28;20037;-58
2024/02/08 09:31:56;;;;;;;8.63;3.80;;;;;;;;;;5029861;28;20022;-59
2024/02/08 09:34:31;;;;;;;9.63;3.42;;;;;;;;;;5028730;28;20408;-57
2024/02/08 09:36:57;;;;;;;7.53;2.92;;;;;;;;;;5032493;28;20087;-56
2024/02/08 09:39:48;;;;;;;;;;;;;;;;;;5031340;28;20048;-57
2024/02/08 09:42:09;;;;;;;8.82;3.60;;;;;;;;;;5019834;28;20044;-57
2024/02/08 09:44:36;;;;;;;8.15;3.33;;;;;;;;;;5034646;28;20025;-57
2024/02/08 09:47:04;;;;;;;8.15;3.15;;;;;;;;;;5031674;28;20037;-57
2024/02/08 09:49:34;;;;;;;8.70;3.35;;;;;;;;;;5033942;28;20100;-56
2024/02/08 09:52:14;;;;;;;9.35;3.40;;;;;;;;;;5037636;28;20833;-57
2024/02/08 09:54:46;;;;;;;8.00;3.60;;;;;;;;;;5037989;28;20044;-56
2024/02/08 09:57:31;;;;;;;8.10;3.70;;;;;;;;;;5033793;28;20034;-62
2024/02/08 10:00:01;;;;;;;13.18;4.22;;;;;;;;;;5031210;28;20087;-57
2024/02/08 10:02:32;;;;;;;12.07;3.92;;;;;;;;;;5029066;28;20068;-57
2024/02/08 10:04:58;;;;;;;10.27;3.40;;;;;;;;;;5032677;28;20597;-57
2024/02/08 10:07:34;;;;;;;10.38;3.95;;;;;;;;;;5032009;28;20017;-56
2024/02/08 10:10:14;;;;;;;9.88;4.13;;;;;;;;;;5033506;28;20101;-56
2024/02/08 10:12:53;;;;;;;15.23;6.13;;;;;;;;;;5031450;28;20040;-58
2024/02/08 10:15:25;;;;;;;16.52;6.43;;;;;;;;;;5026730;28;20079;-57
2024/02/08 10:18:02;;;;;;;10.35;4.03;;;;;;;;;;5035025;28;20112;-57
2024/02/08 10:20:45;;;;;;;9.75;3.80;;;;;;;;;;5034741;28;20493;-57
2024/02/08 10:23:33;;;;;;;11.52;3.40;;;;;;;;;;5029294;28;20029;-58
2024/02/08 10:28:41;;;;;;;8.45;3.35;;;;;;;;;;5033928;28;20056;-57
2024/02/08 10:31:07;;;;;;;9.50;3.83;;;;;;;;;;5033232;28;20014;-57
2024/02/08 10:33:37;;;;;;;10.93;4.25;;;;;;;;;;5032032;28;20036;-58
2024/02/08 10:36:10;;;;;;;11.52;4.10;;;;;;;;;;5034831;28;20033;-56
2024/02/08 10:38:55;;;;;;;11.43;4.07;;;;;;;;;;5034831;28;20056;-58
2024/02/08 10:41:27;;;;;;;10.65;3.67;;;;;;;;;;5028258;28;20037;-57
2024/02/08 10:43:52;;;;;;;10.07;3.92;;;;;;;;;;5032341;28;20072;-56
2024/02/08 10:46:18;;;;;;;11.63;4.22;;;;;;;;;;5033468;28;20481;-58
2024/02/08 10:48:48;;;;;;;11.45;3.35;;;;;;;;;;5030689;28;20469;-57
2024/02/08 10:51:25;;;;;;;13.32;4.10;;;;;;;;;;5032649;28;20025;-57
2024/02/08 10:54:04;;;;;;;8.15;3.75;;;;;;;;;;5030711;28;20366;-58
2024/02/08 10:56:40;;;;;;;10.93;4.53;;;;;;;;;;5033059;28;20045;-56
2024/02/08 11:01:33;;;;;;;8.73;3.80;;;;;;;;;;5033354;28;20101;-58
2024/02/08 11:04:01;;;;;;;8.52;3.22;;;;;;;;;;5030992;28;20433;-57
2024/02/08 11:06:29;;;;;;;10.57;3.92;;;;;;;;;;5030846;28;20029;-57
2024/02/08 11:09:14;;;;;;;9.35;3.92;;;;;;;;;;5028137;28;20121;-58
2024/02/08 11:11:44;;;;;;;9.15;3.88;;;;;;;;;;5030341;28;20037;-58
2024/02/08 11:14:11;;;;;;;9.30;3.60;;;;;;;;;;5028014;28;20083;-57
2024/02/08 11:16:37;;;;;;;10.77;4.35;;;;;;;;;;5032677;28;20017;-56
2024/02/08 11:19:04;;;;;;;10.60;3.83;;;;;;;;;;5029971;28;20072;-57
2024/02/08 11:21:43;;;;;;;10.23;4.20;;;;;;;;;;5030641;28;20013;-57
2024/02/08 11:24:08;;;;;;;8.70;3.88;;;;;;;;;;5027110;28;20072;-57
2024/02/08 11:26:34;;;;;;;12.10;4.28;;;;;;;;;;5032121;28;20029;-57
2024/02/08 11:29:04;;;;;;;8.45;3.63;;;;;;;;;;5030227;28;20051;-57
2024/02/08 11:31:33;;;;;;;9.15;3.75;;;;;;;;;;5034724;28;20385;-57
2024/02/08 11:34:14;;;;;;;8.43;3.85;;;;;;;;;;5030945;28;20167;-57
2024/02/08 11:36:42;;;;;;;9.80;4.20;;;;;;;;;;5032003;28;20059;-57
2024/02/08 11:39:21;;;;;;;9.82;4.28;;;;;;;;;;5024091;28;20075;-58
2024/02/08 11:41:48;;;;;;;9.07;4.53;;;;;;;;;;5031910;28;20025;-58
2024/02/08 11:44:21;;;;;;;9.35;3.92;;;;;;;;;;5032010;28;20025;-56
2024/02/08 11:46:50;;;;;;;9.80;4.10;;;;;;;;;;5031387;28;20028;-57
2024/02/08 11:49:31;;;;;;;9.63;4.43;;;;;;;;;;5025623;28;20033;-57
2024/02/08 11:51:56;;;;;;;9.90;4.72;;;;;;;;;;5031022;28;20505;-57
2024/02/08 11:54:22;;;;;;;9.73;4.55;;;;;;;;;;5029313;28;20021;-57
2024/02/08 11:56:48;;;;;;;10.32;4.97;;;;;;;;;;5027826;28;20256;-57
2024/02/08 11:59:14;;;;;;;10.45;4.32;;;;;;;;;;5029815;28;20017;-57
2024/02/08 12:01:43;;;;;;;11.85;5.50;;;;;;;;;;5032140;28;20044;-58
2024/02/08 12:04:08;;;;;;;12.45;5.30;;;;;;;;;;5026779;28;20063;-57
2024/02/08 12:06:34;;;;;;;11.53;4.87;;;;;;;;;;5030021;28;20424;-57
2024/02/08 12:09:03;;;;;;;9.73;4.03;;;;;;;;;;5030156;28;20373;-57
2024/02/08 12:11:32;;;;;;;11.05;4.60;;;;;;;;;;5031229;28;20018;-58
2024/02/08 12:13:57;;;;;;;8.60;3.95;;;;;;;;;;5030364;28;20033;-58
2024/02/08 12:16:25;;;;;;;10.93;5.40;;;;;;;;;;5030975;28;20119;-58
2024/02/08 12:18:55;;;;;;;8.80;4.50;;;;;;;;;;5027323;28;20021;-56
2024/02/08 12:21:23;;;;;;;8.82;4.47;;;;;;;;;;5030226;28;20029;-58
2024/02/08 12:23:53;;;;;;;9.57;4.40;;;;;;;;;;5033926;28;20501;-57
2024/02/08 12:26:22;;;;;;;9.63;4.40;;;;;;;;;;5030465;28;20030;-57
2024/02/08 12:28:55;;;;;;;9.05;4.30;;;;;;;;;;5028303;28;20096;-57
2024/02/08 12:31:24;;;;;;;8.82;4.25;;;;;;;;;;5030176;28;20116;-56
2024/02/08 12:33:51;;;;;;;8.43;4.05;;;;;;;;;;5022087;28;20030;-55
2024/02/08 12:36:18;;;;;;;11.10;4.40;;;;;;;;;;5023156;28;20740;-58
2024/02/08 12:38:46;;;;;;;9.70;4.55;;;;;;;;;;5029214;28;20433;-57
2024/02/08 12:41:12;;;;;;;9.02;4.63;;;;;;;;;;5024126;28;20028;-56
2024/02/08 12:43:37;;;;;;;10.02;4.15;;;;;;;;;;5030869;28;20029;-57
2024/02/08 12:46:03;;;;;;;10.18;4.65;;;;;;;;;;5030978;28;20025;-58
2024/02/08 12:48:29;;;;;;;10.05;4.47;;;;;;;;;;5027822;28;20014;-57
2024/02/08 12:50:57;;;;;;;9.07;4.38;;;;;;;;;;5030005;28;20463;-57
2024/02/08 12:53:22;;;;;;;11.63;5.43;;;;;;;;;;5027636;28;20428;-57
2024/02/08 12:55:47;;;;;;;10.93;4.78;;;;;;;;;;5023348;28;20024;-56
2024/02/08 12:58:16;;;;;;;10.17;4.33;;;;;;;;;;5024384;28;20343;-57
2024/02/08 13:00:45;;;;;;;11.15;4.55;;;;;;;;;;5017470;28;20488;-57
2024/02/08 13:03:10;;;;;;;10.93;4.90;;;;;;;;;;5020314;28;20096;-57
2024/02/08 13:05:36;;;;;;;10.90;5.07;;;;;;;;;;5025182;28;20104;-57
2024/02/08 13:08:01;;;;;;;11.43;4.72;;;;;;;;;;5025551;28;20103;-56
2024/02/08 13:10:28;;;;;;;14.10;5.47;;;;;;;;;;5025592;28;20029;-56
2024/02/08 13:12:57;;;;;;;11.02;5.20;;;;;;;;;;5026847;28;20504;-57
2024/02/08 13:15:22;;;;;;;11.20;4.60;;;;;;;;;;5026566;28;20440;-57
2024/02/08 13:17:50;;;;;;;11.60;5.10;;;;;;;;;;5021898;28;20025;-58
2024/02/08 13:20:16;;;;;;;10.75;5.10;;;;;;;;;;5023279;28;20452;-57
2024/02/08 13:22:44;;;;;;;10.23;4.13;;;;;;;;;;5021540;28;20025;-57
2024/02/08 13:25:12;;;;;;;9.80;4.35;;;;;;;;;;5024438;28;20132;-57
2024/02/08 13:27:38;;;;;;;10.48;4.70;;;;;;;;;;5030655;28;20034;-58
2024/02/08 13:30:14;;;;;;;9.50;3.60;;;;;;;;;;5026185;28;20029;-56
2024/02/08 13:32:39;;;;;;;13.35;4.18;;;;;;;;;;5030582;28;20029;-57
2024/02/08 13:35:05;;;;;;;9.95;4.05;;;;;;;;;;5028629;28;20018;-59
2024/02/08 13:37:30;;;;;;;7.85;3.70;;;;;;;;;;5026346;28;20028;-58
2024/02/08 13:40:03;;;;;;;11.20;3.80;;;;;;;;;;5028374;28;20029;-56
2024/02/08 13:42:31;;;;;;;9.95;3.97;;;;;;;;;;5028921;28;20060;-57
2024/02/08 13:45:03;;;;;;;10.70;3.58;;;;;;;;;;5028851;28;20104;-57
2024/02/08 13:47:28;;;;;;;9.90;3.88;;;;;;;;;;5025521;28;20032;-57
2024/02/08 13:49:57;;;;;;;8.53;3.87;;;;;;;;;;5030076;28;20022;-57
2024/02/08 13:52:26;;;;;;;11.35;3.75;;;;;;;;;;5028881;28;20060;-57
2024/02/08 13:54:52;;;;;;;10.43;4.03;;;;;;;;;;5034334;28;20053;-57
2024/02/08 13:57:17;;;;;;;;;;;;;;;;;;5032104;28;20026;-56
2024/02/08 13:59:46;;;;;;;10.90;3.67;;;;;;;;;;5027993;28;20007;-56
2024/02/08 14:02:13;;;;;;;8.77;3.80;;;;;;;;;;5030964;28;20053;-57
2024/02/08 14:04:39;;;;;;;10.43;4.10;;;;;;;;;;5019897;28;20022;-57
2024/02/08 14:07:04;;;;;;;8.90;3.65;;;;;;;;;;5024226;28;20105;-56
2024/02/08 14:09:32;;;;;;;12.17;4.70;;;;;;;;;;5027332;28;20552;-56
2024/02/08 14:11:58;;;;;;;13.00;4.47;;;;;;;;;;5026090;28;20029;-57
2024/02/08 14:14:31;;;;;;;11.10;4.25;;;;;;;;;;5030155;28;20052;-57
2024/02/08 14:16:58;;;;;;;10.18;4.10;;;;;;;;;;5028948;28;20018;-57
2024/02/08 14:19:33;;;;;;;12.57;4.90;;;;;;;;;;5024623;28;20028;-57
2024/02/08 14:22:05;;;;;;;11.73;4.82;;;;;;;;;;5024559;28;20025;-56
2024/02/08 14:24:35;;;;;;;11.98;5.18;;;;;;;;;;5031974;28;20104;-57
2024/02/08 14:27:05;;;;;;;13.50;5.35;;;;;;;;;;5033150;28;20036;-57
2024/02/08 14:29:30;;;;;;;14.50;5.70;;;;;;;;;;5031285;28;20516;-57
2024/02/08 14:31:55;;;;;;;17.05;6.50;;;;;;;;;;5031203;28;20045;-59
2024/02/08 14:34:25;;;;;;;15.88;6.43;;;;;;;;;;5029926;28;20029;-58
2024/02/08 14:36:50;;;;;;;14.88;6.18;;;;;;;;;;5022014;28;20033;-57
2024/02/08 14:39:26;;;;;;;14.13;6.40;;;;;;;;;;5030196;28;20028;-57
2024/02/08 14:41:55;;;;;;;16.20;7.40;;;;;;;;;;5024906;28;20130;-57
2024/02/08 14:44:24;;;;;;;14.70;6.50;;;;;;;;;;5027920;28;20029;-57
2024/02/08 14:46:50;;;;;;;15.43;6.25;;;;;;;;;;5015307;28;20408;-57
2024/02/08 14:49:23;;;;;;;13.57;5.63;;;;;;;;;;5030896;28;20104;-58
2024/02/08 14:51:48;;;;;;;15.43;7.20;;;;;;;;;;5031376;28;20397;-58
2024/02/08 14:54:13;;;;;;;18.58;8.27;;;;;;;;;;5033055;28;20029;-57
2024/02/08 14:56:41;;;;;;;14.82;6.72;;;;;;;;;;5033589;28;20029;-57
2024/02/08 15:01:42;;;;;;;18.70;7.60;;;;;;;;;;5032345;28;20060;-57
2024/02/08 15:04:17;;;;;;;19.67;8.95;;;;;;;;;;5032434;28;20029;-58
2024/02/08 15:14:49;;;;;;;20.00;8.18;;;;;;;;;;5015369;28;20040;-58
2024/02/08 15:17:23;;;;;;;14.13;6.73;;;;;;;;;;5018025;28;20072;-57
2024/02/08 15:19:48;;;;;;;16.67;7.80;;;;;;;;;;5025428;28;20033;-58
2024/02/08 15:24:57;;;;;;;15.85;6.60;;;;;;;;;;5028113;28;20031;-57
2024/02/08 15:27:31;;;;;;;16.58;8.50;;;;;;;;;;5027374;28;20025;-58
2024/02/08 15:30:10;;;;;;;18.27;6.85;;;;;;;;;;5022264;28;20111;-57
2024/02/08 15:32:46;;;;;;;15.88;7.20;;;;;;;;;;5025889;28;20025;-59
2024/02/08 15:35:23;;;;;;;14.20;6.20;;;;;;;;;;5027197;28;20443;-59
2024/02/08 15:38:18;;;;;;;15.25;7.05;;;;;;;;;;5016470;28;20599;-57
2024/02/08 15:40:34;;;;;;;16.60;7.78;;;;;;;;;;5026662;28;20029;-58
2024/02/08 15:42:59;;;;;;;17.08;6.95;;;;;;;;;;5027655;28;20517;-58
2024/02/08 15:45:27;;;;;;;16.03;7.03;;;;;;;;;;5025646;28;20045;-58
2024/02/08 15:47:55;;;;;;;16.23;6.82;;;;;;;;;;5017994;28;20460;-57
2024/02/08 15:50:32;;;;;;;19.00;7.75;;;;;;;;;;5026851;28;20017;-57
2024/02/08 15:52:58;;;;;;;17.40;7.50;;;;;;;;;;5028836;28;20449;-58
2024/02/08 15:55:25;;;;;;;16.15;7.63;;;;;;;;;;5025980;28;20117;-58
2024/02/08 15:58:10;;;;;;;17.42;8.00;;;;;;;;;;5026716;28;20163;-58
2024/02/08 16:03:25;;;;;;;15.25;7.43;;;;;;;;;;5021560;28;20132;-57
2024/02/08 16:05:55;;;;;;;16.85;8.05;;;;;;;;;;5027736;28;20104;-57
2024/02/08 16:08:29;;;;;;;16.90;7.57;;;;;;;;;;5027151;28;20022;-58
2024/02/08 16:11:02;;;;;;;17.67;7.35;;;;;;;;;;5027309;28;20033;-59
2024/02/08 16:13:34;;;;;;;14.30;6.32;;;;;;;;;;5027933;28;20460;-57
2024/02/08 16:16:07;;;;;;;18.52;7.82;;;;;;;;;;5021080;28;20036;-58
2024/02/08 16:18:36;;;;;;;18.38;8.07;;;;;;;;;;5023617;28;20029;-57
2024/02/08 16:21:05;;;;;;;16.83;6.95;;;;;;;;;;5023109;28;20454;-56
2024/02/08 16:23:43;;;;;;;17.98;7.25;;;;;;;;;;5031268;28;20037;-59
2024/02/08 16:26:09;;;;;;;18.95;7.82;;;;;;;;;;5026262;28;20025;-59
2024/02/08 16:28:45;;;;;;;17.73;6.68;;;;;;;;;;5028945;28;20032;-58
2024/02/08 16:31:24;;;;;;;19.23;7.60;;;;;;;;;;5026662;28;20028;-59
2024/02/08 16:33:54;;;;;;;15.60;6.88;;;;;;;;;;5026743;28;20574;-57
2024/02/08 16:38:57;;;;;;;17.45;7.55;;;;;;;;;;5028547;28;20056;-57
2024/02/08 16:41:23;;;;;;;17.48;7.43;;;;;;;;;;5027731;28;20021;-59
2024/02/08 16:43:56;;;;;;;18.75;7.75;;;;;;;;;;5030831;28;20104;-59
2024/02/08 16:46:23;;;;;;;19.75;7.80;;;;;;;;;;5031583;28;20411;-58
2024/02/08 16:48:50;;;;;;;13.82;6.85;;;;;;;;;;5031236;28;20098;-57
2024/02/08 16:51:25;;;;;;;19.17;8.00;;;;;;;;;;5028239;28;20026;-58
2024/02/08 16:54:01;;;;;;;17.15;7.90;;;;;;;;;;5026884;28;20026;-58
2024/02/08 16:56:37;;;;;;;14.68;6.93;;;;;;;;;;5029559;28;20053;-58